createdAt,value
2023-04-22T00:00:39.425Z,1.13
2023-04-22T00:03:08.629Z,1.17
2023-04-22T00:05:38.129Z,1.03
2023-04-22T00:08:10.509Z,1.40
2023-04-22T00:10:38.450Z,1.07
2023-04-22T00:13:06.516Z,1.23
2023-04-22T00:15:34.465Z,1.57
2023-04-22T00:18:02.448Z,1.37
2023-04-22T00:20:32.598Z,1.20
2023-04-22T00:23:00.584Z,1.20
2023-04-22T00:25:29.977Z,1.10
2023-04-22T00:27:57.947Z,1.10
2023-04-22T00:30:25.956Z,1.20
2023-04-22T00:32:54.826Z,1.20
2023-04-22T00:35:23.080Z,1.10
2023-04-22T00:37:51.044Z,1.17
2023-04-22T00:40:19.031Z,1.13
2023-04-22T00:42:50.755Z,1.03
2023-04-22T00:45:19.200Z,1.20
2023-04-22T00:47:47.623Z,1.17
2023-04-22T00:50:15.632Z,1.27
2023-04-22T00:52:43.582Z,1.10
2023-04-22T00:55:11.779Z,1.00
2023-04-22T00:57:40.077Z,1.07
2023-04-22T01:00:11.073Z,0.90
2023-04-22T01:02:39.601Z,1.10
2023-04-22T01:05:09.608Z,1.00
2023-04-22T01:07:37.743Z,1.10
2023-04-22T01:10:06.434Z,1.00
2023-04-22T01:12:34.438Z,1.13
2023-04-22T01:15:04.632Z,1.10
2023-04-22T01:17:34.580Z,1.00
2023-04-22T01:20:04.146Z,1.00
2023-04-22T01:22:34.983Z,0.90
2023-04-22T01:25:07.227Z,0.93
2023-04-22T01:27:40.002Z,1.00
2023-04-22T01:30:08.532Z,0.90
2023-04-22T01:32:37.021Z,0.80
2023-04-22T01:35:05.447Z,1.10
2023-04-22T01:37:33.472Z,0.90
2023-04-22T01:40:01.660Z,0.90
2023-04-22T01:42:31.857Z,0.90
2023-04-22T01:44:59.938Z,1.40
2023-04-22T01:47:28.409Z,0.97
2023-04-22T01:49:56.466Z,0.80
2023-04-22T01:52:24.454Z,1.03
2023-04-22T01:54:52.578Z,0.97
2023-04-22T01:57:20.619Z,0.87
2023-04-22T01:59:49.922Z,0.90
2023-04-22T02:02:17.924Z,1.23
2023-04-22T02:04:45.987Z,1.20
2023-04-22T02:07:14.006Z,0.97
2023-04-22T02:09:42.192Z,1.03
2023-04-22T02:12:10.460Z,0.97
2023-04-22T02:14:38.420Z,1.13
2023-04-22T02:17:07.859Z,0.70
2023-04-22T02:19:36.024Z,0.90
2023-04-22T02:22:04.046Z,1.10
2023-04-22T02:24:32.040Z,0.87
2023-04-22T02:27:00.402Z,1.10
2023-04-22T02:29:29.039Z,1.10
2023-04-22T02:31:56.954Z,0.97
2023-04-22T02:34:26.352Z,1.00
2023-04-22T02:36:54.351Z,1.30
2023-04-22T02:39:22.295Z,1.00
2023-04-22T02:41:50.208Z,0.87
2023-04-22T02:44:18.107Z,1.00
2023-04-22T02:46:46.097Z,1.00
2023-04-22T02:49:13.995Z,0.93
2023-04-22T02:51:43.298Z,1.10
2023-04-22T02:54:11.254Z,1.77
2023-04-22T02:56:39.313Z,0.90
2023-04-22T02:59:09.571Z,1.00
2023-04-22T03:01:37.669Z,0.90
2023-04-22T03:04:06.868Z,1.10
2023-04-22T03:06:36.655Z,0.90
2023-04-22T03:09:06.008Z,1.10
2023-04-22T03:11:33.922Z,1.00
2023-04-22T03:14:01.851Z,1.17
2023-04-22T03:16:29.754Z,0.97
2023-04-22T03:18:57.799Z,0.90
2023-04-22T03:21:25.761Z,0.90
2023-04-22T03:23:53.723Z,0.80
2023-04-22T03:26:24.063Z,1.00
2023-04-22T03:28:51.953Z,0.97
2023-04-22T03:31:19.841Z,0.97
2023-04-22T03:33:47.833Z,1.43
2023-04-22T03:36:15.950Z,1.27
2023-04-22T03:38:43.814Z,1.00
2023-04-22T03:41:11.792Z,0.80
2023-04-22T03:43:41.116Z,0.93
2023-04-22T03:46:09.371Z,1.00
2023-04-22T03:48:39.604Z,0.87
2023-04-22T03:51:07.500Z,1.00
2023-04-22T03:53:35.490Z,0.93
2023-04-22T03:56:03.419Z,1.00
2023-04-22T03:58:31.328Z,0.90
2023-04-22T04:01:00.656Z,0.70
2023-04-22T04:03:31.018Z,0.87
2023-04-22T04:05:59.240Z,0.97
2023-04-22T04:08:27.134Z,0.90
2023-04-22T04:10:55.027Z,0.90
2023-04-22T04:13:22.930Z,0.77
2023-04-22T04:15:51.165Z,0.80
2023-04-22T04:18:21.666Z,0.93
2023-04-22T04:20:49.630Z,0.90
2023-04-22T04:23:17.569Z,0.90
2023-04-22T04:25:45.670Z,0.80
2023-04-22T04:28:13.966Z,0.80
2023-04-22T04:30:42.469Z,1.00
2023-04-22T04:33:12.464Z,1.10
2023-04-22T04:35:43.439Z,0.90
2023-04-22T04:38:12.130Z,1.00
2023-04-22T04:40:40.055Z,1.00
2023-04-22T04:43:08.886Z,1.00
2023-04-22T04:45:37.890Z,1.00
2023-04-22T04:48:07.186Z,0.80
2023-04-22T04:50:35.672Z,1.00
2023-04-22T04:53:05.032Z,1.00
2023-04-22T04:55:32.995Z,0.70
2023-04-22T04:58:00.932Z,0.87
2023-04-22T05:00:28.987Z,1.00
2023-04-22T05:02:56.958Z,1.30
2023-04-22T05:05:25.067Z,1.30
2023-04-22T05:07:54.053Z,0.83
2023-04-22T05:10:23.540Z,0.80
2023-04-22T05:12:51.418Z,1.00
2023-04-22T05:15:19.455Z,0.70
2023-04-22T05:17:47.405Z,1.00
2023-04-22T05:20:15.482Z,1.10
2023-04-22T05:22:43.373Z,0.97
2023-04-22T05:25:11.820Z,1.00
2023-04-22T05:27:41.684Z,0.73
2023-04-22T05:30:10.256Z,1.33
2023-04-22T05:32:38.376Z,0.97
2023-04-22T05:35:06.770Z,0.60
2023-04-22T05:37:34.740Z,1.10
2023-04-22T05:40:02.722Z,0.90
2023-04-22T05:42:30.638Z,1.10
2023-04-22T05:44:59.975Z,0.97
2023-04-22T05:47:27.959Z,1.30
2023-04-22T05:49:55.941Z,0.73
2023-04-22T05:52:23.908Z,1.00
2023-04-22T05:54:51.816Z,1.10
2023-04-22T05:57:19.748Z,0.90
2023-04-22T05:59:47.636Z,0.83
2023-04-22T06:02:17.465Z,0.97
2023-04-22T06:04:45.849Z,0.80
2023-04-22T06:07:13.985Z,1.10
2023-04-22T06:09:42.247Z,0.90
2023-04-22T06:12:10.469Z,1.10
2023-04-22T06:14:38.402Z,0.93
2023-04-22T06:17:06.264Z,1.00
2023-04-22T06:19:35.731Z,1.13
2023-04-22T06:22:03.651Z,1.20
2023-04-22T06:24:31.574Z,1.00
2023-04-22T06:27:02.710Z,0.80
2023-04-22T06:29:30.712Z,0.90
2023-04-22T06:31:58.726Z,0.90
2023-04-22T06:34:26.690Z,0.90
2023-04-22T06:36:56.059Z,1.00
2023-04-22T06:39:24.008Z,0.80
2023-04-22T06:41:51.912Z,1.20
2023-04-22T06:44:19.813Z,1.10
2023-04-22T06:46:47.906Z,1.10
2023-04-22T06:49:15.835Z,0.80
2023-04-22T06:51:43.751Z,0.80
2023-04-22T06:54:13.013Z,1.00
2023-04-22T06:56:40.980Z,1.00
2023-04-22T06:59:09.164Z,1.10
2023-04-22T07:01:37.134Z,0.80
2023-04-22T07:04:05.218Z,0.80
2023-04-22T07:06:33.154Z,1.10
2023-04-22T07:09:01.209Z,0.80
2023-04-22T07:11:31.596Z,0.80
2023-04-22T07:13:59.501Z,0.80
2023-04-22T07:16:28.063Z,1.20
2023-04-22T07:18:56.196Z,0.80
2023-04-22T07:21:24.078Z,1.00
2023-04-22T07:23:52.167Z,1.10
2023-04-22T07:26:21.349Z,1.13
2023-04-22T07:28:50.783Z,1.33
2023-04-22T07:31:18.786Z,1.27
2023-04-22T07:33:46.728Z,1.10
2023-04-22T07:36:14.654Z,1.20
2023-04-22T07:38:42.610Z,1.20
2023-04-22T07:41:10.538Z,1.10
2023-04-22T07:43:38.419Z,1.90
2023-04-22T07:46:07.714Z,1.00
2023-04-22T07:48:35.883Z,0.90
2023-04-22T07:51:03.847Z,0.90
2023-04-22T07:53:31.716Z,1.10
2023-04-22T07:56:02.052Z,1.00
2023-04-22T07:58:30.208Z,1.10
2023-04-22T08:00:58.168Z,1.00
2023-04-22T08:03:27.751Z,0.97
2023-04-22T08:05:58.246Z,1.00
2023-04-22T08:08:26.223Z,1.10
2023-04-22T08:10:54.120Z,1.10
2023-04-22T08:13:22.006Z,1.10
2023-04-22T08:15:49.953Z,1.10
2023-04-22T08:18:17.828Z,1.10
2023-04-22T08:20:47.127Z,1.17
2023-04-22T08:23:15.092Z,1.10
2023-04-22T08:25:43.313Z,1.37
2023-04-22T08:28:11.244Z,1.00
2023-04-22T08:30:39.142Z,1.40
2023-04-22T08:33:07.202Z,1.13
2023-04-22T08:35:35.995Z,1.10
2023-04-22T08:38:06.221Z,1.40
2023-04-22T08:40:36.693Z,1.63
2023-04-22T08:43:05.856Z,0.93
2023-04-22T08:45:34.116Z,0.93
2023-04-22T08:48:02.236Z,1.20
2023-04-22T08:50:31.926Z,1.10
2023-04-22T08:53:00.043Z,0.97
2023-04-22T08:55:29.596Z,1.10
2023-04-22T08:57:57.593Z,1.07
2023-04-22T09:00:25.746Z,0.90
2023-04-22T09:02:55.083Z,1.23
2023-04-22T09:05:24.072Z,1.03
2023-04-22T09:07:53.307Z,1.07
2023-04-22T09:10:21.384Z,1.20
2023-04-22T09:12:50.869Z,1.00
2023-04-22T09:15:18.907Z,1.30
2023-04-22T09:17:46.852Z,1.20
2023-04-22T09:20:16.143Z,1.03
2023-04-22T09:22:44.865Z,1.00
2023-04-22T09:25:19.103Z,0.80
2023-04-22T09:27:51.758Z,1.27
2023-04-22T09:30:20.482Z,1.50
2023-04-22T09:32:55.213Z,1.00
2023-04-22T09:35:30.016Z,1.20
2023-04-22T09:37:59.145Z,0.90
2023-04-22T09:40:27.059Z,1.07
2023-04-22T09:42:57.173Z,1.17
2023-04-22T09:45:29.019Z,0.90
2023-04-22T09:47:57.442Z,1.30
2023-04-22T09:50:26.493Z,1.10
2023-04-22T09:52:58.391Z,1.00
2023-04-22T09:55:27.368Z,1.00
2023-04-22T09:57:57.679Z,1.00
2023-04-22T10:00:27.264Z,1.10
2023-04-22T10:02:55.301Z,1.00
2023-04-22T10:05:24.198Z,1.40
2023-04-22T10:07:52.426Z,1.00
2023-04-22T10:10:20.316Z,1.13
2023-04-22T10:12:48.592Z,1.10
2023-04-22T10:15:17.906Z,1.30
2023-04-22T10:17:47.133Z,1.10
2023-04-22T10:20:18.176Z,1.00
2023-04-22T10:22:46.942Z,1.23
2023-04-22T10:25:15.353Z,1.00
2023-04-22T10:27:43.279Z,1.20
2023-04-22T10:30:12.716Z,1.20
2023-04-22T10:32:42.085Z,1.20
2023-04-22T10:35:11.960Z,1.17
2023-04-22T10:37:42.802Z,1.13
2023-04-22T10:40:12.554Z,1.13
2023-04-22T10:42:41.386Z,1.40
2023-04-22T10:45:13.329Z,1.30
2023-04-22T10:47:43.241Z,1.63
2023-04-22T10:50:12.274Z,1.40
2023-04-22T10:52:40.635Z,1.70
2023-04-22T10:55:08.635Z,1.40
2023-04-22T10:57:41.736Z,1.50
2023-04-22T11:00:19.953Z,1.30
2023-04-22T11:02:53.204Z,1.30
2023-04-22T11:05:24.571Z,0.93
2023-04-22T11:07:54.822Z,1.00
2023-04-22T11:10:34.498Z,0.80
2023-04-22T11:13:02.811Z,1.07
2023-04-22T11:15:31.365Z,1.00
2023-04-22T11:18:00.791Z,1.20
2023-04-22T11:20:29.881Z,1.20
2023-04-22T11:22:58.369Z,1.17
2023-04-22T11:25:27.523Z,1.20
2023-04-22T11:27:55.615Z,1.30
2023-04-22T11:30:24.387Z,1.20
2023-04-22T11:32:53.249Z,1.17
2023-04-22T11:35:23.529Z,1.30
2023-04-22T11:37:52.944Z,1.20
2023-04-22T11:40:30.981Z,1.40
2023-04-22T11:43:00.870Z,1.30
2023-04-22T11:45:29.448Z,1.20
2023-04-22T11:47:57.643Z,1.57
2023-04-22T11:50:27.995Z,1.40
2023-04-22T11:52:56.638Z,1.43
2023-04-22T11:55:27.199Z,1.60
2023-04-22T11:57:56.619Z,1.20
2023-04-22T12:00:25.048Z,1.73
2023-04-22T12:03:02.742Z,1.07
2023-04-22T12:05:36.216Z,1.37
2023-04-22T12:08:06.800Z,1.30
2023-04-22T12:10:34.844Z,1.30
2023-04-22T12:13:03.106Z,1.10
2023-04-22T12:15:38.857Z,1.43
2023-04-22T12:18:09.385Z,1.10
2023-04-22T12:20:40.022Z,1.30
2023-04-22T12:23:13.574Z,1.73
2023-04-22T12:25:42.004Z,1.30
2023-04-22T12:28:09.883Z,1.70
2023-04-22T12:30:37.864Z,1.50
2023-04-22T12:33:06.572Z,1.67
2023-04-22T12:35:34.823Z,1.60
2023-04-22T12:38:04.152Z,1.50
2023-04-22T12:40:32.114Z,1.57
2023-04-22T12:43:00.040Z,1.70
2023-04-22T12:45:27.962Z,1.60
2023-04-22T12:47:56.074Z,1.57
2023-04-22T12:50:24.038Z,2.00
2023-04-22T12:52:51.930Z,1.63
2023-04-22T12:55:21.473Z,2.30
2023-04-22T12:57:50.274Z,1.60
2023-04-22T13:00:18.440Z,1.90
2023-04-22T13:02:48.346Z,1.50
2023-04-22T13:05:17.237Z,1.93
2023-04-22T13:07:46.929Z,1.57
2023-04-22T13:10:23.077Z,1.60
2023-04-22T13:12:51.055Z,1.93
2023-04-22T13:15:24.792Z,1.57
2023-04-22T13:17:52.798Z,1.70
2023-04-22T13:20:20.748Z,2.03
2023-04-22T13:22:48.696Z,2.00
2023-04-22T13:25:16.689Z,1.70
2023-04-22T13:27:46.132Z,1.90
2023-04-22T13:30:14.496Z,2.00
2023-04-22T13:32:42.440Z,2.27
2023-04-22T13:35:10.713Z,1.53
2023-04-22T13:37:38.622Z,3.20
2023-04-22T13:40:07.159Z,2.10
2023-04-22T13:42:35.146Z,2.00
2023-04-22T13:45:04.716Z,1.90
2023-04-22T13:47:32.607Z,2.17
2023-04-22T13:50:02.088Z,2.43
2023-04-22T13:52:30.159Z,2.50
2023-04-22T13:54:58.036Z,1.97
2023-04-22T13:57:26.207Z,2.03
2023-04-22T13:59:54.140Z,1.57
2023-04-22T14:02:23.508Z,2.20
2023-04-22T14:04:51.485Z,1.80
2023-04-22T14:07:19.493Z,2.00
2023-04-22T14:09:47.394Z,2.00
2023-04-22T14:12:15.366Z,2.10
2023-04-22T14:14:43.461Z,1.70
2023-04-22T14:17:11.415Z,3.10
2023-04-22T14:19:41.245Z,2.33
2023-04-22T14:22:09.680Z,2.00
2023-04-22T14:24:37.665Z,2.27
2023-04-22T14:27:05.900Z,1.83
2023-04-22T14:29:33.839Z,2.17
2023-04-22T14:32:01.797Z,2.10
2023-04-22T14:34:29.754Z,2.03
2023-04-22T14:36:59.586Z,1.77
2023-04-22T14:39:27.461Z,1.90
2023-04-22T14:41:55.583Z,1.50
2023-04-22T14:44:23.560Z,2.67
2023-04-22T14:46:51.428Z,1.50
2023-04-22T14:49:19.353Z,1.63
2023-04-22T14:51:47.357Z,1.47
2023-04-22T14:54:16.693Z,2.00
2023-04-22T14:56:44.608Z,1.67
2023-04-22T14:59:12.573Z,2.00
2023-04-22T15:01:43.249Z,1.57
2023-04-22T15:04:13.775Z,2.17
2023-04-22T15:06:42.000Z,1.40
2023-04-22T15:09:09.998Z,1.60
2023-04-22T15:11:39.370Z,1.93
2023-04-22T15:14:07.398Z,2.03
2023-04-22T15:16:38.286Z,1.67
2023-04-22T15:19:06.522Z,1.73
2023-04-22T15:21:37.557Z,2.00
2023-04-22T15:24:05.676Z,2.13
2023-04-22T15:26:34.045Z,2.07
2023-04-22T15:29:03.519Z,2.20
2023-04-22T15:31:31.428Z,1.83
2023-04-22T15:33:59.339Z,1.90
2023-04-22T15:36:27.268Z,1.90
2023-04-22T15:38:56.598Z,1.83
2023-04-22T15:41:24.623Z,2.00
2023-04-22T15:43:52.676Z,2.00
2023-04-22T15:46:22.081Z,1.97
2023-04-22T15:48:50.243Z,2.17
2023-04-22T15:51:18.868Z,1.77
2023-04-22T15:53:47.161Z,1.80
2023-04-22T15:56:15.408Z,2.00
2023-04-22T15:58:43.296Z,2.00
2023-04-22T16:01:18.968Z,1.80
2023-04-22T16:03:49.579Z,1.60
2023-04-22T16:06:18.193Z,2.03
2023-04-22T16:08:46.661Z,2.10
2023-04-22T16:11:15.413Z,1.73
2023-04-22T16:13:43.676Z,1.90
2023-04-22T16:16:11.821Z,2.30
2023-04-22T16:18:42.135Z,1.93
2023-04-22T16:21:13.046Z,1.90
2023-04-22T16:23:40.973Z,1.90
2023-04-22T16:26:08.887Z,1.90
2023-04-22T16:28:36.841Z,2.17
2023-04-22T16:31:04.821Z,1.83
2023-04-22T16:33:34.662Z,2.37
2023-04-22T16:36:02.537Z,2.00
2023-04-22T16:38:31.861Z,1.87
2023-04-22T16:40:59.856Z,1.70
2023-04-22T16:43:27.806Z,1.70
2023-04-22T16:45:55.673Z,1.80
2023-04-22T16:48:23.585Z,1.70
2023-04-22T16:50:52.765Z,3.30
2023-04-22T16:53:20.735Z,1.50
2023-04-22T16:55:50.089Z,1.87
2023-04-22T16:58:18.041Z,1.90
2023-04-22T17:00:47.751Z,1.70
2023-04-22T17:03:16.478Z,1.67
2023-04-22T17:05:44.572Z,1.70
2023-04-22T17:08:12.508Z,2.10
2023-04-22T17:10:45.172Z,2.07
2023-04-22T17:13:14.704Z,1.83
2023-04-22T17:15:42.942Z,2.13
2023-04-22T17:18:10.858Z,2.00
2023-04-22T17:20:38.733Z,1.87
2023-04-22T17:23:06.778Z,1.93
2023-04-22T17:25:34.634Z,1.83
2023-04-22T17:28:02.700Z,1.80
2023-04-22T17:30:32.122Z,2.50
2023-04-22T17:33:00.225Z,1.73
2023-04-22T17:35:28.122Z,1.60
2023-04-22T17:37:57.953Z,1.93
2023-04-22T17:40:25.963Z,1.60
2023-04-22T17:42:53.905Z,1.70
2023-04-22T17:45:21.920Z,2.00
2023-04-22T17:47:51.391Z,1.80
2023-04-22T17:50:19.812Z,2.23
2023-04-22T17:52:47.825Z,2.70
2023-04-22T17:55:15.769Z,1.90
2023-04-22T17:57:43.716Z,2.07
2023-04-22T18:00:14.633Z,2.53
2023-04-22T18:02:42.689Z,2.73
2023-04-22T18:05:12.387Z,2.60
2023-04-22T18:07:40.352Z,3.20
2023-04-22T18:10:09.030Z,3.27
2023-04-22T18:12:37.094Z,3.03
2023-04-22T18:15:05.363Z,3.07
2023-04-22T18:17:33.307Z,3.17
2023-04-22T18:20:13.926Z,2.27
2023-04-22T18:22:46.821Z,1.90
2023-04-22T18:25:14.749Z,1.97
2023-04-22T18:27:42.695Z,1.80
2023-04-22T18:30:11.178Z,2.17
2023-04-22T18:32:39.423Z,1.80
2023-04-22T18:35:11.190Z,2.27
2023-04-22T18:37:39.083Z,1.63
2023-04-22T18:40:10.012Z,1.57
2023-04-22T18:42:37.915Z,1.50
2023-04-22T18:45:06.626Z,1.67
2023-04-22T18:47:34.598Z,1.53
2023-04-22T18:50:02.589Z,1.73
2023-04-22T18:52:30.670Z,1.70
2023-04-22T18:54:58.627Z,1.60
2023-04-22T18:57:28.068Z,1.80
2023-04-22T18:59:56.472Z,5.73
2023-04-22T19:02:24.736Z,2.40
2023-04-22T19:04:53.766Z,1.97
2023-04-22T19:07:21.772Z,1.80
2023-04-22T19:09:49.755Z,1.37
2023-04-22T19:12:19.765Z,1.47
2023-04-22T19:14:49.180Z,1.50
2023-04-22T19:17:17.235Z,1.33
2023-04-22T19:19:45.650Z,1.40
2023-04-22T19:22:13.801Z,1.10
2023-04-22T19:24:43.725Z,1.20
2023-04-22T19:27:12.823Z,1.10
2023-04-22T19:29:41.750Z,1.23
2023-04-22T19:32:11.664Z,1.30
2023-04-22T19:34:39.744Z,1.30
2023-04-22T19:37:08.459Z,1.03
2023-04-22T19:39:36.775Z,1.30
2023-04-22T19:42:04.937Z,0.83
2023-04-22T19:44:32.895Z,1.23
2023-04-22T19:47:00.987Z,1.10
2023-04-22T19:49:32.894Z,1.23
2023-04-22T19:52:03.049Z,0.97
2023-04-22T19:54:31.440Z,1.10
2023-04-22T19:56:59.871Z,1.00
2023-04-22T19:59:31.355Z,1.50
2023-04-22T20:01:59.732Z,1.63
2023-04-22T20:04:28.198Z,1.60
2023-04-22T20:06:59.814Z,1.63
2023-04-22T20:09:29.109Z,2.40
2023-04-22T20:11:57.207Z,1.30
2023-04-22T20:14:27.098Z,1.60
2023-04-22T20:16:55.397Z,1.37
2023-04-22T20:19:23.529Z,1.53
2023-04-22T20:21:53.617Z,1.47
2023-04-22T20:24:23.118Z,1.80
2023-04-22T20:26:51.148Z,1.50
2023-04-22T20:29:19.244Z,1.20
2023-04-22T20:31:47.436Z,1.40
2023-04-22T20:34:15.742Z,1.50
2023-04-22T20:36:44.590Z,1.30
2023-04-22T20:39:14.353Z,1.87
2023-04-22T20:41:44.596Z,1.30
2023-04-22T20:44:12.527Z,1.10
2023-04-22T20:46:40.480Z,1.40
2023-04-22T20:49:08.447Z,1.27
2023-04-22T20:51:36.379Z,1.10
2023-04-22T20:54:06.154Z,1.33
2023-04-22T20:56:37.864Z,1.63
2023-04-22T20:59:07.672Z,1.60
2023-04-22T21:01:35.855Z,1.53
2023-04-22T21:04:04.641Z,2.40
2023-04-22T21:06:34.278Z,2.13
2023-04-22T21:09:03.097Z,1.80
2023-04-22T21:11:31.267Z,2.20
2023-04-22T21:14:00.365Z,2.20
2023-04-22T21:16:31.727Z,4.00
2023-04-22T21:19:00.532Z,2.43
2023-04-22T21:21:31.552Z,2.17
2023-04-22T21:24:00.965Z,2.00
2023-04-22T21:26:29.630Z,1.50
2023-04-22T21:28:57.796Z,2.23
2023-04-22T21:31:36.884Z,1.90
2023-04-22T21:34:08.977Z,1.77
2023-04-22T21:36:37.084Z,1.93
2023-04-22T21:39:05.507Z,2.30
2023-04-22T21:41:33.429Z,2.30
2023-04-22T21:44:01.371Z,2.53
2023-04-22T21:46:29.343Z,3.00
2023-04-22T21:48:57.348Z,2.73
2023-04-22T21:51:27.288Z,2.70
2023-04-22T21:53:55.264Z,3.30
2023-04-22T21:56:23.230Z,2.10
2023-04-22T21:58:51.148Z,2.27
2023-04-22T22:01:19.120Z,2.40
2023-04-22T22:03:47.355Z,2.03
2023-04-22T22:06:15.327Z,2.13
2023-04-22T22:08:45.800Z,2.30
2023-04-22T22:11:27.634Z,2.27
2023-04-22T22:13:58.576Z,2.40
2023-04-22T22:16:26.873Z,2.97
2023-04-22T22:18:55.864Z,2.90
2023-04-22T22:21:23.968Z,2.67
2023-04-22T22:23:53.351Z,2.60
2023-04-22T22:26:21.308Z,3.73
2023-04-22T22:28:49.266Z,3.07
2023-04-22T22:31:17.237Z,2.93
2023-04-22T22:33:45.147Z,2.80
2023-04-22T22:36:13.065Z,3.27
2023-04-22T22:38:40.950Z,2.90
2023-04-22T22:41:10.397Z,2.67
2023-04-22T22:43:38.270Z,3.13
2023-04-22T22:46:06.255Z,2.60
2023-04-22T22:48:34.637Z,2.40
2023-04-22T22:51:02.568Z,2.27
2023-04-22T22:53:30.557Z,2.93
2023-04-22T22:55:58.550Z,2.47
2023-04-22T22:58:28.068Z,3.43
2023-04-22T23:00:56.264Z,3.27
2023-04-22T23:03:24.354Z,3.40
2023-04-22T23:05:52.409Z,3.40
2023-04-22T23:08:20.341Z,3.00
2023-04-22T23:10:48.231Z,2.67
2023-04-22T23:13:16.193Z,2.63
2023-04-22T23:15:45.545Z,2.80
2023-04-22T23:18:15.259Z,2.70
2023-04-22T23:20:43.259Z,2.90
2023-04-22T23:23:12.669Z,2.63
2023-04-22T23:25:40.779Z,2.77
2023-04-22T23:28:09.050Z,2.67
2023-04-22T23:30:37.382Z,2.63
2023-04-22T23:33:08.303Z,3.13
2023-04-22T23:35:37.304Z,2.57
2023-04-22T23:38:05.381Z,2.63
2023-04-22T23:40:33.459Z,3.10
2023-04-22T23:43:01.400Z,2.47
2023-04-22T23:45:29.320Z,3.73
2023-04-22T23:47:57.697Z,2.53
2023-04-22T23:50:27.105Z,1.77
2023-04-22T23:52:55.050Z,2.87
2023-04-22T23:55:23.558Z,2.30
2023-04-22T23:57:52.061Z,2.57
